Brockley, United Kingdom
Current Conditions -  °F | °C
As of 5:50 PM on Sunday 21 Dec 2014 (Local Time) from EGLC Reporting Station
Broken Clouds Broken Clouds  
Wind Chill: 52°   Ceiling: 1600
Heat Index: 52°   Visibility: 6mi
Dew Point: 45°   Wind: 17mph
Humidity: 76%   Direction: 240°WSW
Pressure: 30.18"   Gusts: NA
Location:  51.45°N, 0.03°W
Report Text: EGLC 211750Z 24015KT 9999 BKN016 11/07 Q1022
Loading
Personal Weather Stations






























Interactive Weather Map New forecast layout! Learn more

10-Day Weather Forecast

Advertisements
Track Severe Weather on mobile